createdAt,value
2019-02-28T00:01:43.281Z,3.22
2019-02-28T00:04:14.366Z,3.67
2019-02-28T00:06:45.403Z,3.90
2019-02-28T00:09:16.429Z,3.60
2019-02-28T00:11:47.454Z,4.28
2019-02-28T00:14:18.306Z,4.17
2019-02-28T00:16:48.999Z,3.58
2019-02-28T00:19:21.057Z,3.55
2019-02-28T00:21:52.518Z,3.27
2019-02-28T00:24:23.230Z,3.80
2019-02-28T00:26:53.898Z,3.70
2019-02-28T00:29:24.854Z,3.00
2019-02-28T00:31:55.540Z,3.70
2019-02-28T00:34:27.330Z,3.47
2019-02-28T00:36:58.201Z,3.42
2019-02-28T00:39:34.455Z,3.55
2019-02-28T00:42:03.158Z,3.00
2019-02-28T00:44:33.872Z,3.65
2019-02-28T00:47:04.938Z,3.65
2019-02-28T00:49:35.988Z,4.53
2019-02-28T00:52:06.653Z,3.10
2019-02-28T00:54:42.972Z,3.60
2019-02-28T00:57:09.796Z,3.10
2019-02-28T00:59:43.141Z,3.50
2019-02-28T01:02:13.991Z,3.50
2019-02-28T01:04:45.144Z,3.22
2019-02-28T01:07:16.127Z,4.00
2019-02-28T01:09:48.092Z,3.85
2019-02-28T01:12:19.917Z,3.40
2019-02-28T01:14:50.882Z,4.10
2019-02-28T01:17:24.062Z,3.40
2019-02-28T01:19:54.151Z,4.22
2019-02-28T01:22:26.853Z,4.20
2019-02-28T01:24:58.074Z,4.30
2019-02-28T01:27:30.635Z,3.77
2019-02-28T01:30:01.418Z,4.17
2019-02-28T01:32:32.149Z,3.80
2019-02-28T01:35:06.739Z,4.22
2019-02-28T01:37:36.687Z,3.42
2019-02-28T01:40:07.793Z,4.15
2019-02-28T01:42:38.646Z,4.05
2019-02-28T01:45:10.889Z,4.22
2019-02-28T01:47:42.020Z,3.67
2019-02-28T01:50:14.496Z,4.10
2019-02-28T01:52:46.214Z,3.70
2019-02-28T01:55:17.054Z,3.92
2019-02-28T01:57:48.195Z,3.60
2019-02-28T02:00:19.723Z,3.22
2019-02-28T02:02:50.761Z,4.25
2019-02-28T02:05:21.493Z,4.15
2019-02-28T02:07:52.371Z,3.25
2019-02-28T02:10:23.742Z,3.70
2019-02-28T02:12:54.805Z,4.62
2019-02-28T02:15:25.395Z,3.67
2019-02-28T02:17:56.100Z,3.50
2019-02-28T02:20:27.807Z,4.33
2019-02-28T02:22:58.471Z,3.10
2019-02-28T02:25:29.317Z,3.72
2019-02-28T02:28:00.100Z,4.33
2019-02-28T02:30:30.964Z,3.52
2019-02-28T02:33:01.645Z,3.35
2019-02-28T02:35:32.412Z,3.47
2019-02-28T02:38:04.619Z,3.15
2019-02-28T02:40:36.071Z,3.30
2019-02-28T02:43:06.873Z,2.98
2019-02-28T02:45:41.671Z,3.70
2019-02-28T02:48:09.933Z,3.17
2019-02-28T02:50:40.583Z,3.12
2019-02-28T02:53:11.164Z,2.90
2019-02-28T02:55:42.540Z,2.95
2019-02-28T02:58:13.337Z,2.62
2019-02-28T03:00:49.293Z,2.90
2019-02-28T03:03:17.470Z,2.58
2019-02-28T03:05:48.187Z,2.98
2019-02-28T03:08:19.127Z,2.87
2019-02-28T03:10:51.854Z,2.90
2019-02-28T03:13:22.663Z,2.85
2019-02-28T03:15:53.076Z,3.20
2019-02-28T03:18:23.744Z,3.47
2019-02-28T03:20:54.510Z,3.05
2019-02-28T03:23:25.164Z,3.45
2019-02-28T03:25:55.881Z,3.65
2019-02-28T03:28:28.100Z,3.77
2019-02-28T03:31:11.901Z,4.30
2019-02-28T03:33:32.008Z,3.90
2019-02-28T03:36:02.515Z,4.87
2019-02-28T03:38:34.670Z,4.00
2019-02-28T03:41:05.599Z,4.65
2019-02-28T03:43:42.656Z,4.35
2019-02-28T03:46:10.307Z,3.80
2019-02-28T03:48:42.234Z,3.40
2019-02-28T03:51:12.967Z,3.52
2019-02-28T03:53:43.882Z,3.62
2019-02-28T03:56:16.027Z,3.27
2019-02-28T03:58:46.822Z,3.42
2019-02-28T04:01:17.549Z,3.85
2019-02-28T04:03:49.801Z,3.52
2019-02-28T04:06:20.534Z,3.83
2019-02-28T04:08:51.102Z,3.58
2019-02-28T04:11:21.712Z,3.60
2019-02-28T04:13:56.041Z,3.17
2019-02-28T04:16:25.024Z,3.15
2019-02-28T04:18:55.608Z,2.92
2019-02-28T04:21:26.517Z,3.42
2019-02-28T04:23:57.343Z,3.90
2019-02-28T04:26:29.775Z,2.70
2019-02-28T04:29:01.571Z,2.70
2019-02-28T04:31:32.225Z,3.15
2019-02-28T04:34:02.961Z,4.60
2019-02-28T04:36:35.854Z,4.78
2019-02-28T04:39:07.772Z,4.20
2019-02-28T04:41:38.606Z,4.30
2019-02-28T04:44:09.249Z,3.92
2019-02-28T04:46:40.304Z,3.25
2019-02-28T04:49:11.533Z,3.58
2019-02-28T04:51:42.533Z,2.95
2019-02-28T04:54:13.368Z,3.30
2019-02-28T04:56:45.634Z,3.52
2019-02-28T04:59:16.293Z,3.72
2019-02-28T05:01:46.916Z,3.17
2019-02-28T05:04:17.489Z,3.27
2019-02-28T05:06:48.186Z,3.20
2019-02-28T05:09:19.034Z,5.10
2019-02-28T05:11:50.787Z,4.10
2019-02-28T05:14:23.697Z,4.10
2019-02-28T05:16:55.303Z,4.95
2019-02-28T05:19:25.918Z,5.97
2019-02-28T05:21:56.557Z,5.83
2019-02-28T05:24:27.943Z,5.30
2019-02-28T05:27:00.332Z,5.40
2019-02-28T05:29:30.796Z,5.30
2019-02-28T05:32:01.919Z,6.40
2019-02-28T05:34:34.270Z,8.55
2019-02-28T05:37:04.966Z,8.30
2019-02-28T05:39:35.551Z,6.92
2019-02-28T05:42:06.177Z,6.47
2019-02-28T05:44:40.284Z,7.20
2019-02-28T05:47:12.046Z,9.10
2019-02-28T05:49:42.870Z,9.95
2019-02-28T05:52:17.503Z,9.68
2019-02-28T05:54:50.533Z,9.53
2019-02-28T05:57:23.724Z,10.03
2019-02-28T05:59:54.514Z,8.40
2019-02-28T06:02:25.723Z,7.80
2019-02-28T06:04:57.768Z,7.83
2019-02-28T06:07:29.483Z,7.50
2019-02-28T06:10:00.805Z,7.00
2019-02-28T06:12:31.703Z,6.60
2019-02-28T06:15:03.771Z,6.20
2019-02-28T06:17:34.887Z,7.27
2019-02-28T06:20:06.227Z,6.90
2019-02-28T06:22:37.068Z,7.50
2019-02-28T06:25:08.303Z,8.30
2019-02-28T06:27:41.885Z,10.80
2019-02-28T06:30:12.339Z,14.57
2019-02-28T06:32:43.379Z,10.70
2019-02-28T06:35:20.222Z,12.63
2019-02-28T06:37:49.063Z,13.17
2019-02-28T06:40:20.238Z,13.80
2019-02-28T06:42:52.591Z,12.83
2019-02-28T06:45:23.687Z,11.90
2019-02-28T06:47:54.559Z,12.43
2019-02-28T06:50:25.555Z,9.37
2019-02-28T06:52:59.219Z,8.50
2019-02-28T06:55:31.443Z,8.93
2019-02-28T06:58:02.871Z,8.10
2019-02-28T07:00:34.159Z,6.37
2019-02-28T07:03:05.827Z,8.40
2019-02-28T07:05:36.702Z,8.07
2019-02-28T07:08:07.544Z,8.33
2019-02-28T07:10:38.319Z,8.23
2019-02-28T07:13:09.114Z,7.67
2019-02-28T07:15:40.095Z,8.47
2019-02-28T07:18:10.918Z,9.03
2019-02-28T07:20:43.140Z,7.33
2019-02-28T07:23:13.997Z,8.13
2019-02-28T07:25:47.344Z,8.27
2019-02-28T07:28:17.526Z,8.70
2019-02-28T07:30:50.294Z,9.80
2019-02-28T07:33:21.050Z,11.00
2019-02-28T07:35:51.729Z,10.97
2019-02-28T07:38:25.675Z,10.47
2019-02-28T07:40:56.047Z,11.60
2019-02-28T07:43:26.876Z,10.50
2019-02-28T07:45:58.974Z,11.00
2019-02-28T07:48:30.091Z,9.90
2019-02-28T07:51:00.898Z,10.37
2019-02-28T07:53:31.996Z,9.67
2019-02-28T07:56:03.735Z,9.60
2019-02-28T07:58:35.203Z,11.37
2019-02-28T08:01:06.031Z,11.97
2019-02-28T08:03:36.938Z,11.80
2019-02-28T08:06:08.053Z,11.10
2019-02-28T08:11:20.614Z,11.43
2019-02-28T08:13:51.649Z,10.20
2019-02-28T08:16:22.850Z,10.67
2019-02-28T08:18:53.377Z,10.87
2019-02-28T08:21:24.074Z,11.10
2019-02-28T08:23:54.869Z,10.87
2019-02-28T08:26:25.802Z,11.90
2019-02-28T08:28:59.921Z,11.63
2019-02-28T08:31:33.044Z,12.60
2019-02-28T08:34:04.013Z,16.50
2019-02-28T08:36:34.801Z,14.97
2019-02-28T08:39:09.703Z,14.23
2019-02-28T08:41:43.083Z,12.30
2019-02-28T08:44:14.148Z,10.80
2019-02-28T08:46:46.577Z,11.67
2019-02-28T08:49:18.953Z,11.23
2019-02-28T08:51:49.947Z,13.27
2019-02-28T08:54:26.127Z,11.43
2019-02-28T08:56:53.346Z,10.17
2019-02-28T08:59:25.624Z,10.37
2019-02-28T09:01:56.422Z,10.53
2019-02-28T09:04:27.181Z,11.03
2019-02-28T09:06:58.132Z,10.87
2019-02-28T09:09:28.816Z,11.80
2019-02-28T09:11:59.686Z,11.10
2019-02-28T09:14:31.620Z,9.90
2019-02-28T09:17:02.343Z,9.93
2019-02-28T09:19:35.986Z,10.77
2019-02-28T09:22:05.566Z,10.33
2019-02-28T09:24:37.308Z,9.60
2019-02-28T09:27:07.979Z,10.70
2019-02-28T09:29:39.061Z,10.93
2019-02-28T09:32:10.284Z,10.40
2019-02-28T09:34:44.227Z,9.23
2019-02-28T09:37:15.096Z,11.00
2019-02-28T09:39:45.998Z,9.33
2019-02-28T09:42:17.767Z,8.83
2019-02-28T09:44:49.321Z,9.97
2019-02-28T09:47:19.985Z,10.93
2019-02-28T09:49:50.699Z,9.23
2019-02-28T09:52:22.788Z,9.70
2019-02-28T09:54:56.283Z,9.93
2019-02-28T09:57:27.571Z,9.07
2019-02-28T09:59:58.113Z,8.87
2019-02-28T10:02:29.699Z,8.80
2019-02-28T10:05:02.926Z,8.07
2019-02-28T10:07:33.128Z,7.33
2019-02-28T10:10:03.951Z,7.33
2019-02-28T10:12:36.062Z,7.80
2019-02-28T10:15:07.533Z,8.20
2019-02-28T10:17:42.144Z,7.80
2019-02-28T10:20:17.142Z,6.70
2019-02-28T10:22:49.663Z,6.87
2019-02-28T10:25:20.592Z,7.20
2019-02-28T10:27:51.701Z,6.60
2019-02-28T10:30:31.266Z,7.33
2019-02-28T10:32:55.649Z,8.33
2019-02-28T10:35:26.518Z,7.47
2019-02-28T10:37:58.541Z,7.20
2019-02-28T10:40:29.871Z,7.47
2019-02-28T10:43:00.938Z,6.43
2019-02-28T10:45:31.844Z,6.50
2019-02-28T10:48:04.121Z,6.70
2019-02-28T10:50:35.008Z,6.50
2019-02-28T10:53:06.152Z,7.20
2019-02-28T10:55:40.909Z,7.90
2019-02-28T10:58:15.493Z,7.77
2019-02-28T11:00:45.517Z,6.70
2019-02-28T11:03:16.708Z,7.77
2019-02-28T11:05:53.357Z,6.47
2019-02-28T11:08:20.464Z,6.73
2019-02-28T11:10:51.346Z,7.20
2019-02-28T11:13:22.266Z,6.50
2019-02-28T11:15:55.213Z,6.23
2019-02-28T11:18:26.014Z,7.17
2019-02-28T11:20:58.055Z,5.90
2019-02-28T11:23:29.544Z,6.23
2019-02-28T11:26:02.335Z,6.23
2019-02-28T11:28:33.232Z,6.67
2019-02-28T11:31:04.438Z,6.20
2019-02-28T11:33:36.453Z,5.23
2019-02-28T11:36:08.667Z,4.77
2019-02-28T11:38:39.674Z,4.90
2019-02-28T11:41:15.495Z,5.10
2019-02-28T11:43:46.641Z,6.07
2019-02-28T11:46:19.587Z,5.50
2019-02-28T11:48:54.162Z,5.07
2019-02-28T11:51:24.253Z,5.37
2019-02-28T11:53:54.831Z,4.90
2019-02-28T11:56:28.791Z,5.47
2019-02-28T11:58:58.569Z,4.90
2019-02-28T12:01:29.389Z,4.80
2019-02-28T12:04:01.204Z,5.50
2019-02-28T12:06:32.238Z,5.67
2019-02-28T12:09:03.124Z,5.83
2019-02-28T12:11:36.532Z,5.03
2019-02-28T12:14:07.586Z,5.60
2019-02-28T12:16:38.516Z,4.43
2019-02-28T12:19:09.177Z,4.60
2019-02-28T12:21:39.745Z,4.93
2019-02-28T12:24:10.320Z,4.73
2019-02-28T12:26:42.221Z,4.53
2019-02-28T12:29:14.497Z,4.73
2019-02-28T12:31:45.793Z,4.23
2019-02-28T12:34:17.474Z,4.77
2019-02-28T12:36:49.375Z,5.13
2019-02-28T12:39:20.911Z,5.80
2019-02-28T12:41:51.877Z,4.37
2019-02-28T12:44:25.034Z,4.60
2019-02-28T12:46:55.947Z,5.90
2019-02-28T12:49:27.646Z,4.27
2019-02-28T12:51:59.777Z,4.50
2019-02-28T12:54:33.320Z,4.27
2019-02-28T12:57:03.017Z,4.97
2019-02-28T12:59:34.823Z,4.60
2019-02-28T13:02:08.492Z,4.10
2019-02-28T13:04:39.969Z,4.40
2019-02-28T13:07:10.840Z,6.63
2019-02-28T13:09:41.702Z,5.70
2019-02-28T13:12:12.655Z,4.60
2019-02-28T13:14:43.462Z,3.90
2019-02-28T13:17:16.078Z,5.13
2019-02-28T13:19:46.799Z,4.17
2019-02-28T13:22:18.888Z,4.73
2019-02-28T13:24:50.688Z,5.37
2019-02-28T13:27:21.447Z,4.70
2019-02-28T13:29:53.269Z,4.20
2019-02-28T13:32:24.209Z,4.90
2019-02-28T13:34:54.777Z,4.67
2019-02-28T13:37:25.404Z,4.50
2019-02-28T13:39:56.765Z,5.17
2019-02-28T13:42:27.815Z,4.77
2019-02-28T13:44:58.426Z,4.93
2019-02-28T13:47:29.886Z,5.80
2019-02-28T13:50:00.928Z,5.10
2019-02-28T13:52:31.487Z,4.27
2019-02-28T13:55:02.189Z,5.23
2019-02-28T13:57:32.715Z,5.30
2019-02-28T14:00:07.991Z,4.70
2019-02-28T14:02:36.190Z,5.60
2019-02-28T14:05:07.345Z,5.80
2019-02-28T14:07:38.279Z,5.10
2019-02-28T14:10:11.442Z,5.03
2019-02-28T14:12:42.646Z,5.93
2019-02-28T14:15:15.752Z,4.27
2019-02-28T14:17:49.502Z,5.23
2019-02-28T14:20:20.893Z,4.67
2019-02-28T14:22:52.456Z,6.13
2019-02-28T14:25:23.865Z,5.17
2019-02-28T14:27:56.896Z,6.83
2019-02-28T14:30:27.744Z,7.03
2019-02-28T14:32:58.890Z,5.17
2019-02-28T14:35:34.034Z,4.80
2019-02-28T14:38:02.548Z,4.80
2019-02-28T14:40:33.682Z,4.53
2019-02-28T14:43:04.679Z,6.00
2019-02-28T14:45:39.130Z,4.83
2019-02-28T14:48:08.531Z,4.90
2019-02-28T14:50:39.304Z,5.80
2019-02-28T14:53:14.409Z,6.17
2019-02-28T14:55:46.578Z,6.13
2019-02-28T14:58:21.173Z,5.30
2019-02-28T15:00:51.751Z,5.37
2019-02-28T15:03:23.900Z,6.30
2019-02-28T15:05:55.515Z,6.93
2019-02-28T15:08:27.240Z,4.90
2019-02-28T15:10:58.031Z,5.40
2019-02-28T15:13:30.434Z,5.50
2019-02-28T15:16:01.461Z,5.70
2019-02-28T15:18:32.528Z,5.63
2019-02-28T15:21:04.507Z,6.03
2019-02-28T15:23:35.997Z,6.90
2019-02-28T15:26:06.883Z,6.97
2019-02-28T15:28:37.750Z,6.77
2019-02-28T15:31:09.453Z,7.20
2019-02-28T15:33:41.524Z,6.50
2019-02-28T15:36:12.913Z,7.10
2019-02-28T15:38:45.411Z,6.93
2019-02-28T15:41:20.721Z,6.90
2019-02-28T15:43:53.522Z,6.50
2019-02-28T15:46:24.222Z,7.53
2019-02-28T15:48:56.227Z,6.90
2019-02-28T15:51:29.446Z,8.33
2019-02-28T15:54:02.669Z,7.10
2019-02-28T15:56:33.931Z,8.40
2019-02-28T15:59:06.166Z,8.00
2019-02-28T16:01:36.895Z,7.80
2019-02-28T16:04:08.725Z,7.70
2019-02-28T16:06:39.538Z,8.57
2019-02-28T16:09:14.251Z,8.83
2019-02-28T16:12:05.054Z,10.07
2019-02-28T16:14:38.200Z,11.13
2019-02-28T16:17:09.003Z,11.37
2019-02-28T16:19:39.952Z,12.33
2019-02-28T16:22:11.502Z,9.03
2019-02-28T16:24:42.656Z,10.47
2019-02-28T16:27:13.664Z,9.93
2019-02-28T16:29:44.501Z,9.80
2019-02-28T16:32:15.511Z,9.53
2019-02-28T16:34:46.370Z,10.63
2019-02-28T16:37:17.310Z,10.57
2019-02-28T16:39:49.125Z,11.53
2019-02-28T16:42:20.981Z,11.37
2019-02-28T16:44:53.265Z,10.80
2019-02-28T16:47:25.138Z,11.20
2019-02-28T16:49:56.015Z,12.57
2019-02-28T16:52:26.996Z,13.37
2019-02-28T16:54:58.011Z,13.50
2019-02-28T16:57:28.927Z,11.33
2019-02-28T17:00:00.287Z,12.50
2019-02-28T17:02:31.130Z,14.20
2019-02-28T17:05:02.082Z,13.80
2019-02-28T17:07:33.376Z,13.60
2019-02-28T17:10:05.998Z,13.10
2019-02-28T17:12:54.212Z,12.70
2019-02-28T17:15:31.857Z,13.13
2019-02-28T17:18:06.219Z,13.00
2019-02-28T17:20:37.636Z,15.50
2019-02-28T17:23:08.838Z,15.50
2019-02-28T17:25:39.479Z,19.73
2019-02-28T17:28:35.288Z,23.20
2019-02-28T17:31:23.673Z,19.17
2019-02-28T17:33:54.939Z,17.90
2019-02-28T17:36:27.342Z,17.13
2019-02-28T17:38:57.689Z,16.77
2019-02-28T17:41:28.590Z,15.87
2019-02-28T17:44:44.930Z,15.70
2019-02-28T17:47:29.842Z,15.67
2019-02-28T17:50:31.877Z,18.47
2019-02-28T17:53:27.039Z,17.27
2019-02-28T17:56:40.828Z,16.03
2019-02-28T17:59:41.991Z,16.23
2019-02-28T18:02:51.340Z,15.37
2019-02-28T18:06:26.794Z,15.20
2019-02-28T18:09:37.642Z,15.83
2019-02-28T18:12:47.300Z,16.53
2019-02-28T18:16:08.096Z,15.70
2019-02-28T18:19:18.157Z,16.87
2019-02-28T18:22:34.787Z,17.37
2019-02-28T18:25:40.580Z,15.60
2019-02-28T18:28:54.906Z,14.63
2019-02-28T18:31:25.264Z,13.47
2019-02-28T18:34:01.888Z,13.70
2019-02-28T18:36:33.348Z,13.20
2019-02-28T18:39:04.923Z,12.50
2019-02-28T18:41:35.410Z,14.20
2019-02-28T18:44:07.653Z,11.50
2019-02-28T18:46:38.320Z,12.60
2019-02-28T18:49:08.849Z,13.33
2019-02-28T18:51:40.924Z,12.57
2019-02-28T18:54:11.327Z,12.53
2019-02-28T18:56:41.775Z,11.00
2019-02-28T18:59:12.377Z,10.00
2019-02-28T19:01:42.933Z,10.23
2019-02-28T19:04:13.470Z,10.00
2019-02-28T19:06:45.417Z,10.20
2019-02-28T19:09:26.887Z,9.40
2019-02-28T19:11:57.499Z,8.80
2019-02-28T19:14:28.596Z,10.37
2019-02-28T19:16:59.536Z,10.43
2019-02-28T19:19:34.175Z,8.37
2019-02-28T19:22:05.428Z,11.07
2019-02-28T19:24:36.174Z,8.90
2019-02-28T19:27:07.751Z,9.00
2019-02-28T19:29:40.988Z,9.10
2019-02-28T19:32:13.062Z,8.70
2019-02-28T19:34:46.444Z,7.80
2019-02-28T19:37:18.223Z,8.77
2019-02-28T19:39:48.971Z,7.77
2019-02-28T19:42:19.446Z,7.80
2019-02-28T19:44:50.217Z,7.83
2019-02-28T19:47:21.030Z,7.73
2019-02-28T19:49:51.311Z,8.60
2019-02-28T19:52:21.939Z,8.37
2019-02-28T19:54:53.501Z,8.13
2019-02-28T19:57:24.133Z,9.63
2019-02-28T19:59:54.620Z,9.17
2019-02-28T20:02:25.407Z,9.23
2019-02-28T20:04:55.876Z,10.67
2019-02-28T20:07:26.436Z,10.30
2019-02-28T20:09:58.463Z,12.10
2019-02-28T20:12:31.109Z,9.40
2019-02-28T20:15:02.104Z,8.20
2019-02-28T20:17:32.543Z,8.00
2019-02-28T20:20:02.894Z,7.90
2019-02-28T20:22:33.792Z,7.50
2019-02-28T20:25:04.748Z,8.00
2019-02-28T20:27:35.434Z,7.93
2019-02-28T20:30:06.801Z,7.63
2019-02-28T20:32:37.156Z,7.80
2019-02-28T20:35:08.060Z,6.67
2019-02-28T20:37:38.491Z,7.17
2019-02-28T20:40:10.853Z,7.43
2019-02-28T20:42:41.159Z,8.10
2019-02-28T20:45:12.218Z,7.43
2019-02-28T20:47:42.502Z,6.80
2019-02-28T20:50:32.382Z,7.77
2019-02-28T20:53:03.059Z,8.10
2019-02-28T20:55:33.459Z,7.50
2019-02-28T20:58:03.872Z,6.80
2019-02-28T21:00:34.308Z,6.80
2019-02-28T21:03:05.254Z,7.10
2019-02-28T21:05:35.930Z,7.10
2019-02-28T21:08:06.476Z,6.87
2019-02-28T21:10:37.121Z,7.30
2019-02-28T21:13:08.410Z,7.03
2019-02-28T21:15:39.273Z,6.43
2019-02-28T21:18:10.151Z,6.47
2019-02-28T21:20:42.409Z,6.40
2019-02-28T21:23:13.012Z,6.27
2019-02-28T21:25:45.212Z,6.10
2019-02-28T21:28:15.880Z,6.87
2019-02-28T21:30:46.633Z,8.83
2019-02-28T21:33:18.238Z,7.53
2019-02-28T21:35:50.511Z,6.60
2019-02-28T21:38:21.259Z,6.80
2019-02-28T21:40:52.148Z,7.07
2019-02-28T21:43:23.045Z,7.60
2019-02-28T21:45:54.062Z,8.47
2019-02-28T21:48:45.320Z,7.70
2019-02-28T21:51:16.477Z,7.23
2019-02-28T21:53:49.360Z,7.37
2019-02-28T21:56:20.079Z,7.97
2019-02-28T21:58:51.158Z,6.40
2019-02-28T22:01:21.769Z,6.50
2019-02-28T22:03:52.583Z,6.20
2019-02-28T22:06:23.235Z,6.10
2019-02-28T22:08:53.894Z,6.20
2019-02-28T22:11:24.836Z,6.10
2019-02-28T22:13:55.771Z,5.97
2019-02-28T22:16:26.439Z,6.77
2019-02-28T22:18:57.646Z,6.60
2019-02-28T22:21:28.381Z,6.60
2019-02-28T22:24:00.039Z,6.10
2019-02-28T22:26:36.086Z,6.33
2019-02-28T22:29:06.834Z,6.17
2019-02-28T22:32:00.411Z,6.60
2019-02-28T22:34:53.250Z,6.23
2019-02-28T22:37:24.034Z,7.00
2019-02-28T22:39:54.508Z,7.73
2019-02-28T22:42:25.129Z,7.10
2019-02-28T22:44:55.693Z,6.40
2019-02-28T22:47:26.085Z,6.50
2019-02-28T22:49:57.017Z,6.83
2019-02-28T22:52:27.815Z,7.30
2019-02-28T22:55:00.815Z,6.77
2019-02-28T22:57:31.226Z,6.13
2019-02-28T23:00:04.582Z,7.63
2019-02-28T23:02:35.243Z,5.70
2019-02-28T23:05:07.078Z,6.80
2019-02-28T23:07:38.084Z,6.53
2019-02-28T23:10:10.756Z,7.37
2019-02-28T23:12:41.198Z,6.87
2019-02-28T23:15:12.067Z,6.70
2019-02-28T23:17:43.039Z,6.10
2019-02-28T23:20:13.734Z,6.40
2019-02-28T23:22:44.725Z,7.10
2019-02-28T23:25:14.437Z,6.60
2019-02-28T23:27:44.941Z,6.63
2019-02-28T23:30:33.278Z,7.57
2019-02-28T23:33:13.510Z,6.67
2019-02-28T23:35:46.826Z,6.70
2019-02-28T23:38:17.267Z,7.53
2019-02-28T23:40:47.782Z,7.30
2019-02-28T23:43:18.343Z,7.47
2019-02-28T23:45:48.883Z,7.70
2019-02-28T23:48:19.274Z,7.40
2019-02-28T23:50:49.806Z,7.13
2019-02-28T23:53:20.221Z,7.93
2019-02-28T23:55:50.768Z,7.17
2019-02-28T23:58:21.312Z,7.83
